Time;durP1;ratioP1;P1;durP2;ratioP2;P2;SDS_P1;SDS_P2;PMS_P1;PMS_P2;Temp;Humidity;BMP_temperature;BMP_pressure;BME280_temperature;BME280_humidity;BME280_pressure;Samples;Min_cycle;Max_cycle;Signal;HPM_P1;HPM_P2
2021/08/27 00:01:43;;;;;;;5.13;3.08;;;14.30;97.80;;;;;;5096758;28;20541;-50
2021/08/27 00:04:08;;;;;;;5.50;3.17;;;14.10;98.00;;;;;;5096679;28;20046;-52
2021/08/27 00:06:34;;;;;;;6.10;3.25;;;14.20;97.80;;;;;;5096069;28;20040;-47
2021/08/27 00:08:59;;;;;;;6.25;3.58;;;14.20;97.60;;;;;;5096496;28;20073;-49
2021/08/27 00:11:26;;;;;;;3.97;2.88;;;14.10;97.90;;;;;;5096960;28;20032;-46
2021/08/27 00:13:52;;;;;;;5.72;3.00;;;14.00;98.20;;;;;;5096326;28;20042;-50
2021/08/27 00:16:17;;;;;;;4.88;3.40;;;13.90;98.20;;;;;;5096369;28;20107;-49
2021/08/27 00:18:43;;;;;;;5.30;2.70;;;14.00;98.30;;;;;;5096641;28;20063;-50
2021/08/27 00:21:09;;;;;;;7.13;3.13;;;14.10;98.30;;;;;;5096267;28;20049;-49
2021/08/27 00:23:34;;;;;;;6.38;3.35;;;14.10;98.20;;;;;;5096710;28;20553;-50
2021/08/27 00:26:00;;;;;;;5.47;3.67;;;14.10;98.30;;;;;;5096277;28;20032;-48
2021/08/27 00:28:26;;;;;;;7.30;3.63;;;14.00;98.50;;;;;;5072619;28;20027;-52
2021/08/27 00:30:51;;;;;;;6.07;3.85;;;13.80;99.00;;;;;;5081466;28;20045;-52
2021/08/27 00:33:17;;;;;;;5.45;3.70;;;13.80;99.10;;;;;;5093450;28;20518;-52
2021/08/27 00:35:42;;;;;;;8.45;3.55;;;13.80;99.20;;;;;;5093628;28;20092;-52
2021/08/27 00:38:14;;;;;;;5.05;3.80;;;13.90;99.20;;;;;;5076350;28;20119;-49
2021/08/27 00:40:40;;;;;;;6.97;3.72;;;13.80;99.50;;;;;;5076697;28;20032;-52
2021/08/27 00:43:06;;;;;;;5.15;4.00;;;13.80;99.50;;;;;;5076163;28;20090;-52
2021/08/27 00:45:31;;;;;;;6.90;3.75;;;13.90;99.50;;;;;;5088185;28;20044;-53
2021/08/27 00:47:58;;;;;;;6.53;3.58;;;13.80;99.60;;;;;;5095776;28;20043;-54
2021/08/27 00:50:24;;;;;;;7.80;4.00;;;13.80;99.70;;;;;;5059131;28;20024;-52
2021/08/27 00:52:49;;;;;;;6.18;4.47;;;13.80;99.40;;;;;;5094817;28;20047;-53
2021/08/27 00:55:15;;;;;;;5.00;3.50;;;13.80;99.70;;;;;;5098263;28;20024;-53
2021/08/27 00:57:40;;;;;;;5.97;4.10;;;13.80;99.50;;;;;;5078504;28;20024;-50
2021/08/27 01:00:07;;;;;;;5.78;4.03;;;13.80;99.70;;;;;;5094370;28;20036;-54
2021/08/27 01:02:32;;;;;;;7.00;4.13;;;13.90;99.60;;;;;;5096072;28;20032;-52
2021/08/27 01:04:58;;;;;;;6.40;3.80;;;13.90;99.60;;;;;;5077893;28;20509;-51
2021/08/27 01:07:34;;;;;;;9.18;4.57;;;13.90;99.70;;;;;;5095757;28;20077;-50
2021/08/27 01:10:18;;;;;;;7.90;3.90;;;13.80;99.70;;;;;;5095918;28;20121;-50
2021/08/27 01:12:58;;;;;;;5.88;3.63;;;13.80;99.80;;;;;;5096039;28;20078;-53
2021/08/27 01:15:39;;;;;;;8.57;3.83;;;13.80;99.80;;;;;;5095503;28;20081;-52
2021/08/27 01:18:31;;;;;;;5.90;3.97;;;13.90;99.60;;;;;;5095907;28;20028;-54
2021/08/27 01:21:06;;;;;;;4.88;3.95;;;13.90;99.70;;;;;;5094916;28;20067;-50
2021/08/27 01:23:44;;;;;;;6.82;4.00;;;14.00;99.50;;;;;;5094320;28;20028;-55
2021/08/27 01:26:13;;;;;;;5.93;3.60;;;14.00;99.30;;;;;;5095257;28;20074;-51
2021/08/27 01:28:49;;;;;;;8.00;4.38;;;13.90;99.50;;;;;;5094994;28;20032;-50
2021/08/27 01:31:33;;;;;;;5.20;3.63;;;13.90;99.60;;;;;;5094215;28;20578;-49
2021/08/27 01:34:51;;;;;;;6.25;3.60;;;13.80;99.70;;;;;;5095288;28;20072;-52
2021/08/27 01:37:20;;;;;;;6.03;3.60;;;13.80;99.80;;;;;;5032108;28;20022;-51
2021/08/27 01:39:52;;;;;;;9.10;3.80;;;13.80;99.80;;;;;;5083177;28;20115;-51
2021/08/27 01:42:21;;;;;;;8.63;4.03;;;13.80;99.80;;;;;;5095145;28;20089;-52
2021/08/27 01:44:48;;;;;;;8.05;3.88;;;13.80;99.80;;;;;;5094789;28;20040;-51
2021/08/27 01:47:20;;;;;;;7.88;3.83;;;13.80;99.80;;;;;;5095626;28;20063;-52
2021/08/27 01:49:47;;;;;;;6.43;3.63;;;13.90;99.60;;;;;;5095094;28;20115;-50
2021/08/27 01:52:14;;;;;;;6.32;3.83;;;14.00;99.60;;;;;;5094180;28;20035;-48
2021/08/27 01:54:40;;;;;;;8.95;4.05;;;13.90;99.60;;;;;;5093978;28;20050;-54
2021/08/27 01:57:07;;;;;;;8.20;4.03;;;13.80;99.70;;;;;;5093908;28;20099;-50
2021/08/27 01:59:39;;;;;;;5.43;4.00;;;13.90;99.60;;;;;;5094297;28;20024;-50
2021/08/27 02:02:07;;;;;;;13.77;5.72;;;13.80;99.60;;;;;;5095007;28;20050;-55
2021/08/27 02:04:36;;;;;;;9.50;4.43;;;13.90;99.60;;;;;;5095237;28;20066;-54
2021/08/27 02:07:04;;;;;;;7.85;4.57;;;13.80;99.70;;;;;;5094939;28;20084;-55
2021/08/27 02:09:30;;;;;;;7.50;4.18;;;13.90;99.90;;;;;;5095544;28;20036;-54
2021/08/27 02:11:56;;;;;;;7.00;4.53;;;13.80;99.90;;;;;;5093887;28;20502;-51
2021/08/27 02:14:22;;;;;;;6.50;3.90;;;13.80;99.80;;;;;;5094329;28;20032;-50
2021/08/27 02:16:48;;;;;;;9.95;4.07;;;14.00;99.50;;;;;;5094484;28;20021;-52
2021/08/27 02:19:14;;;;;;;9.02;4.72;;;13.90;99.60;;;;;;5094689;28;20038;-50
2021/08/27 02:21:43;;;;;;;7.88;5.03;;;13.90;99.60;;;;;;5094248;28;20124;-49
2021/08/27 02:24:39;;;;;;;7.85;4.90;;;13.90;99.80;;;;;;5093801;28;20036;-50
2021/08/27 02:27:06;;;;;;;8.82;5.18;;;13.90;99.80;;;;;;5092163;28;20032;-51
2021/08/27 02:29:34;;;;;;;6.47;5.20;;;13.90;99.90;;;;;;5094876;28;20044;-53
2021/08/27 02:32:03;;;;;;;7.65;5.70;;;13.80;99.90;;;;;;5094487;28;20465;-53
2021/08/27 02:34:32;;;;;;;8.43;6.07;;;13.70;99.90;;;;;;5093551;28;20488;-51
2021/08/27 02:36:59;;;;;;;8.25;6.40;;;13.80;99.90;;;;;;5109929;28;20032;-53
2021/08/27 02:39:28;;;;;;;9.07;6.43;;;13.70;99.90;;;;;;5094219;28;20024;-48
2021/08/27 02:41:55;;;;;;;7.75;6.22;;;13.70;99.90;;;;;;5094021;28;20028;-51
2021/08/27 02:44:20;;;;;;;9.25;6.68;;;13.70;99.90;;;;;;5094105;28;20177;-50
2021/08/27 02:46:46;;;;;;;7.30;6.55;;;13.70;99.90;;;;;;5093283;28;20061;-53
2021/08/27 02:49:12;;;;;;;8.75;7.85;;;13.70;99.90;;;;;;5093706;28;20407;-51
2021/08/27 02:51:45;;;;;;;9.88;8.75;;;13.60;99.90;;;;;;5093495;28;20506;-56
2021/08/27 02:54:14;;;;;;;11.70;8.65;;;13.60;99.90;;;;;;5092641;28;20644;-55
2021/08/27 02:56:41;;;;;;;10.95;8.90;;;13.60;99.90;;;;;;5093628;28;20032;-54
2021/08/27 02:59:12;;;;;;;10.68;8.98;;;13.60;99.90;;;;;;5093105;28;20028;-53
2021/08/27 03:01:49;;;;;;;12.32;9.13;;;13.60;99.90;;;;;;5093074;28;20040;-53
2021/08/27 03:04:45;;;;;;;11.52;9.75;;;13.60;99.90;;;;;;5092999;28;20620;-50
2021/08/27 03:07:15;;;;;;;12.27;10.15;;;13.50;99.90;;;;;;5093271;28;20040;-55
2021/08/27 03:09:54;;;;;;;11.68;10.50;;;13.50;99.90;;;;;;5093783;28;20111;-51
2021/08/27 03:12:27;;;;;;;13.90;10.10;;;13.40;99.90;;;;;;5093259;28;20032;-50
2021/08/27 03:14:57;;;;;;;12.13;10.85;;;13.50;99.90;;;;;;5093701;28;20040;-49
2021/08/27 03:17:25;;;;;;;11.57;10.15;;;13.60;99.90;;;;;;5092803;28;20025;-53
2021/08/27 03:19:57;;;;;;;10.98;9.70;;;13.60;99.90;;;;;;5093055;28;20468;-53
2021/08/27 03:22:27;;;;;;;14.80;9.55;;;13.50;99.90;;;;;;5093007;28;20032;-51
2021/08/27 03:25:08;;;;;;;16.10;10.82;;;13.60;99.90;;;;;;5093076;28;20031;-54
2021/08/27 03:27:42;;;;;;;11.05;10.00;;;13.50;99.90;;;;;;5091782;28;20051;-49
2021/08/27 03:30:14;;;;;;;13.07;10.00;;;13.40;99.90;;;;;;5072602;28;20029;-50
2021/08/27 03:32:49;;;;;;;18.58;9.77;;;13.50;99.90;;;;;;5073395;28;20086;-50
2021/08/27 03:35:17;;;;;;;10.25;8.88;;;13.40;99.90;;;;;;5073020;28;20025;-49
2021/08/27 03:37:44;;;;;;;10.77;8.82;;;13.40;99.90;;;;;;5073155;28;20025;-49
2021/08/27 03:40:12;;;;;;;10.35;8.90;;;13.50;99.90;;;;;;5073914;28;20060;-55
2021/08/27 03:42:40;;;;;;;12.30;8.57;;;13.40;99.90;;;;;;5073541;28;20020;-53
2021/08/27 03:45:06;;;;;;;9.75;8.20;;;13.50;99.90;;;;;;5078172;28;20031;-53
2021/08/27 03:47:33;;;;;;;9.02;7.85;;;13.50;99.90;;;;;;5092215;28;20135;-55
2021/08/27 03:49:59;;;;;;;9.85;8.20;;;13.40;99.90;;;;;;5093113;28;20070;-52
2021/08/27 03:52:25;;;;;;;10.88;8.02;;;13.40;99.90;;;;;;5093273;28;20024;-55
2021/08/27 03:54:51;;;;;;;10.13;7.80;;;13.40;99.90;;;;;;5092174;28;20027;-53
2021/08/27 03:57:17;;;;;;;8.23;7.20;;;13.50;99.90;;;;;;5092640;28;20024;-50
2021/08/27 03:59:44;;;;;;;9.45;8.32;;;13.60;99.90;;;;;;5095595;28;20043;-52
2021/08/27 04:02:14;;;;;;;9.63;8.43;;;13.50;99.90;;;;;;5096917;28;20028;-52
2021/08/27 04:04:40;;;;;;;8.95;7.72;;;13.40;99.90;;;;;;5097575;28;20040;-53
2021/08/27 04:07:06;;;;;;;10.27;8.23;;;13.60;99.90;;;;;;5096860;28;20028;-51
2021/08/27 04:09:34;;;;;;;12.60;7.38;;;13.60;99.90;;;;;;5097207;28;20028;-53
2021/08/27 04:12:02;;;;;;;9.90;7.68;;;13.50;99.90;;;;;;5096826;28;20031;-52
2021/08/27 04:14:28;;;;;;;8.55;7.63;;;13.50;99.90;;;;;;5096469;28;20073;-52
2021/08/27 04:16:54;;;;;;;12.77;8.77;;;13.50;99.90;;;;;;5096841;28;20032;-53
2021/08/27 04:19:20;;;;;;;9.18;7.90;;;13.60;99.90;;;;;;5097531;28;20528;-52
2021/08/27 04:21:45;;;;;;;11.60;7.88;;;13.60;99.90;;;;;;5097217;28;20035;-49
2021/08/27 04:24:11;;;;;;;8.93;8.00;;;13.60;99.90;;;;;;5096754;28;20040;-50
2021/08/27 04:26:38;;;;;;;9.60;8.60;;;13.70;99.90;;;;;;5096511;28;20036;-55
2021/08/27 04:29:04;;;;;;;10.25;8.88;;;13.60;99.90;;;;;;5096577;28;20089;-53
2021/08/27 04:31:30;;;;;;;10.45;8.32;;;13.60;99.90;;;;;;5096971;28;20496;-51
2021/08/27 04:33:56;;;;;;;9.68;8.68;;;13.60;99.90;;;;;;5096485;28;20024;-57
2021/08/27 04:36:22;;;;;;;9.68;8.35;;;13.70;99.90;;;;;;5096004;28;20059;-52
2021/08/27 04:38:50;;;;;;;11.48;8.57;;;13.60;99.90;;;;;;5096011;28;20016;-51
2021/08/27 04:41:15;;;;;;;13.07;9.52;;;13.60;99.90;;;;;;5095926;28;20549;-50
2021/08/27 04:43:41;;;;;;;11.48;9.95;;;13.60;99.90;;;;;;5096298;28;20052;-52
2021/08/27 04:46:10;;;;;;;16.35;10.57;;;13.50;99.90;;;;;;5095819;28;20392;-52
2021/08/27 04:48:36;;;;;;;13.80;10.10;;;13.50;99.90;;;;;;5045394;28;20055;-56
2021/08/27 04:51:01;;;;;;;12.32;9.40;;;13.40;99.90;;;;;;5094945;28;20538;-53
2021/08/27 04:53:27;;;;;;;14.88;10.55;;;13.40;99.90;;;;;;5094858;28;20105;-51
2021/08/27 04:55:53;;;;;;;12.43;11.10;;;13.30;99.90;;;;;;5094718;28;20028;-53
2021/08/27 04:58:21;;;;;;;12.57;11.30;;;13.20;99.90;;;;;;5095430;28;20066;-52
2021/08/27 05:00:47;;;;;;;12.85;11.55;;;13.40;99.90;;;;;;5096104;28;20025;-54
2021/08/27 05:03:12;;;;;;;12.57;11.05;;;13.50;99.90;;;;;;5095944;28;20039;-51
2021/08/27 05:05:38;;;;;;;13.95;12.27;;;13.50;99.90;;;;;;5077197;28;20032;-55
2021/08/27 05:08:04;;;;;;;14.95;12.45;;;13.40;99.90;;;;;;5096138;28;20036;-55
2021/08/27 05:10:29;;;;;;;14.18;11.98;;;13.40;99.90;;;;;;5094811;28;20479;-51
2021/08/27 05:12:55;;;;;;;16.27;12.68;;;13.50;99.90;;;;;;5095066;28;20032;-54
2021/08/27 05:15:21;;;;;;;14.30;12.63;;;13.50;99.90;;;;;;5094850;28;20016;-52
2021/08/27 05:17:46;;;;;;;15.40;13.30;;;13.60;99.90;;;;;;5094215;28;20063;-53
2021/08/27 05:20:12;;;;;;;16.08;13.45;;;13.60;99.90;;;;;;5093958;28;20559;-53
2021/08/27 05:22:38;;;;;;;17.90;13.93;;;13.60;99.90;;;;;;5094331;28;20039;-57
2021/08/27 05:25:04;;;;;;;15.93;12.57;;;13.70;99.90;;;;;;5094165;28;20027;-52
2021/08/27 05:27:29;;;;;;;16.52;14.35;;;13.70;99.90;;;;;;5094498;28;20028;-51
2021/08/27 05:29:55;;;;;;;18.25;14.70;;;13.60;99.90;;;;;;5094918;28;20100;-52
2021/08/27 05:32:20;;;;;;;18.40;13.00;;;13.60;99.90;;;;;;5094304;28;20039;-53
2021/08/27 05:34:46;;;;;;;19.48;14.07;;;13.70;99.90;;;;;;5094263;28;20131;-52
2021/08/27 05:37:12;;;;;;;16.35;13.23;;;13.60;99.90;;;;;;5095490;28;20119;-50
2021/08/27 05:39:37;;;;;;;14.57;12.52;;;13.60;99.90;;;;;;5095151;28;20028;-53
2021/08/27 05:42:04;;;;;;;15.43;13.35;;;13.60;99.90;;;;;;5094858;28;20032;-52
2021/08/27 05:44:29;;;;;;;17.45;13.38;;;13.70;99.90;;;;;;5095220;28;20039;-51
2021/08/27 05:46:55;;;;;;;15.63;13.88;;;13.70;99.90;;;;;;5095658;28;20173;-50
2021/08/27 05:49:22;;;;;;;21.90;15.45;;;13.60;99.90;;;;;;5095423;28;20165;-52
2021/08/27 05:51:48;;;;;;;18.80;14.43;;;13.60;99.90;;;;;;5094939;28;20035;-50
2021/08/27 05:54:13;;;;;;;18.50;14.77;;;13.50;99.90;;;;;;5094814;28;20036;-54
2021/08/27 05:56:39;;;;;;;19.77;14.05;;;13.50;99.90;;;;;;5094422;28;20375;-53
2021/08/27 05:59:05;;;;;;;17.42;12.65;;;13.40;99.90;;;;;;5095324;28;20032;-54
2021/08/27 06:01:30;;;;;;;19.52;13.45;;;13.50;99.90;;;;;;5094709;28;20493;-51
2021/08/27 06:03:56;;;;;;;16.13;12.63;;;13.50;99.90;;;;;;5094090;28;20032;-50
2021/08/27 06:06:22;;;;;;;20.27;12.43;;;13.60;99.90;;;;;;5075667;28;20721;-50
2021/08/27 06:08:47;;;;;;;19.40;12.98;;;13.60;99.90;;;;;;5094236;28;20052;-51
2021/08/27 06:11:13;;;;;;;14.13;11.15;;;13.60;99.90;;;;;;5093399;28;20302;-56
2021/08/27 06:13:38;;;;;;;19.30;12.93;;;13.70;99.90;;;;;;5094480;28;20069;-54
2021/08/27 06:16:04;;;;;;;15.05;13.00;;;13.70;99.90;;;;;;5095004;28;20029;-53
2021/08/27 06:18:30;;;;;;;21.70;13.50;;;13.80;99.90;;;;;;5094709;28;20373;-56
2021/08/27 06:20:56;;;;;;;17.63;11.80;;;13.60;99.90;;;;;;5094370;28;20024;-51
2021/08/27 06:23:22;;;;;;;15.10;12.60;;;13.70;99.90;;;;;;5094324;28;20046;-52
2021/08/27 06:25:47;;;;;;;16.15;12.48;;;13.70;99.90;;;;;;5094737;28;20097;-55
2021/08/27 06:28:13;;;;;;;13.40;11.18;;;13.70;99.90;;;;;;5093855;28;20081;-52
2021/08/27 06:30:39;;;;;;;17.15;12.18;;;13.70;99.90;;;;;;5094177;28;20032;-52
2021/08/27 06:33:05;;;;;;;20.05;10.77;;;13.70;99.90;;;;;;5094285;28;20035;-53
2021/08/27 06:35:31;;;;;;;13.70;10.15;;;13.80;99.90;;;;;;5094128;28;20375;-56
2021/08/27 06:40:43;;;;;;;12.55;8.27;;;13.90;99.90;;;;;;5094042;28;20028;-57
2021/08/27 06:43:10;;;;;;;12.73;8.48;;;13.90;99.90;;;;;;5094500;28;20062;-54
2021/08/27 06:45:35;;;;;;;9.55;7.53;;;13.80;99.90;;;;;;5094507;28;20028;-53
2021/08/27 06:48:01;;;;;;;10.50;7.22;;;13.60;99.90;;;;;;5092978;28;20530;-51
2021/08/27 06:50:26;;;;;;;12.35;7.20;;;13.70;99.90;;;;;;5093106;28;20036;-55
2021/08/27 06:52:53;;;;;;;10.73;6.40;;;13.60;99.90;;;;;;5093940;28;20107;-51
2021/08/27 06:55:19;;;;;;;8.40;5.95;;;13.70;99.90;;;;;;5094000;28;20036;-53
2021/08/27 06:57:44;;;;;;;8.45;5.85;;;13.80;99.90;;;;;;5093892;28;20059;-53
2021/08/27 07:00:10;;;;;;;7.25;5.38;;;13.80;99.90;;;;;;5059524;28;20392;-53
2021/08/27 07:02:36;;;;;;;9.13;5.55;;;13.80;99.90;;;;;;5093595;28;20040;-51
2021/08/27 07:05:02;;;;;;;7.97;5.32;;;13.90;99.90;;;;;;5094073;28;20039;-56
2021/08/27 07:07:28;;;;;;;5.47;4.80;;;13.90;99.90;;;;;;5093078;28;20122;-53
2021/08/27 07:09:53;;;;;;;6.35;4.63;;;13.90;99.90;;;;;;5093698;28;20054;-52
2021/08/27 07:12:19;;;;;;;6.93;4.43;;;14.00;99.90;;;;;;5093474;28;20024;-51
2021/08/27 07:14:49;;;;;;;5.22;4.47;;;14.00;99.90;;;;;;5093001;28;20032;-53
2021/08/27 07:17:14;;;;;;;5.20;4.35;;;14.00;99.90;;;;;;5093684;28;20028;-51
2021/08/27 07:19:40;;;;;;;6.00;4.40;;;14.00;99.90;;;;;;5093171;28;20232;-55
2021/08/27 07:22:06;;;;;;;7.18;5.00;;;14.10;99.90;;;;;;5093354;28;20075;-56
2021/08/27 07:24:31;;;;;;;4.63;4.13;;;14.00;99.90;;;;;;5093533;28;20483;-54
2021/08/27 07:26:57;;;;;;;5.75;4.53;;;14.10;99.90;;;;;;5094511;28;20028;-54
2021/08/27 07:29:23;;;;;;;6.50;4.20;;;14.00;99.90;;;;;;5094500;28;20174;-54
2021/08/27 07:31:48;;;;;;;7.13;4.15;;;14.00;99.90;;;;;;5093699;28;20489;-52
2021/08/27 07:34:14;;;;;;;6.05;4.20;;;14.10;99.90;;;;;;5095319;28;20036;-53
2021/08/27 07:36:40;;;;;;;4.60;3.65;;;14.20;99.90;;;;;;5098184;28;20510;-54
2021/08/27 07:39:05;;;;;;;4.10;3.70;;;14.20;99.90;;;;;;5098116;28;20024;-55
2021/08/27 07:41:31;;;;;;;5.18;4.05;;;14.10;99.90;;;;;;5097466;28;20455;-52
2021/08/27 07:43:56;;;;;;;6.15;4.35;;;14.00;99.90;;;;;;5096982;28;20059;-55
2021/08/27 07:46:22;;;;;;;6.75;3.92;;;14.00;99.90;;;;;;5096864;28;20548;-54
2021/08/27 07:48:48;;;;;;;6.55;4.10;;;13.90;99.90;;;;;;5097752;28;20036;-54
2021/08/27 07:51:13;;;;;;;5.20;4.25;;;13.70;99.90;;;;;;5079298;28;20036;-54
2021/08/27 07:53:39;;;;;;;5.43;4.25;;;13.70;99.90;;;;;;5097336;28;20380;-55
2021/08/27 07:56:04;;;;;;;10.50;5.05;;;13.70;99.90;;;;;;5079243;28;20067;-56
2021/08/27 07:58:30;;;;;;;7.70;4.60;;;13.70;99.90;;;;;;5097781;28;20035;-57
2021/08/27 08:00:57;;;;;;;8.88;4.47;;;13.60;99.90;;;;;;5097546;28;20024;-59
2021/08/27 08:03:22;;;;;;;11.95;5.85;;;13.60;99.90;;;;;;5096375;28;20040;-59
2021/08/27 08:05:48;;;;;;;9.02;5.13;;;13.50;99.90;;;;;;5096847;28;20036;-57
2021/08/27 08:08:14;;;;;;;10.07;5.68;;;13.60;99.90;;;;;;5096646;28;20036;-59
2021/08/27 08:10:39;;;;;;;11.25;5.15;;;13.50;99.90;;;;;;5096132;28;20428;-61
2021/08/27 08:13:05;;;;;;;8.35;5.88;;;13.50;99.90;;;;;;5096372;28;20028;-60
2021/08/27 08:15:30;;;;;;;9.52;5.63;;;13.60;99.90;;;;;;5095862;28;20032;-62
2021/08/27 08:17:56;;;;;;;6.85;5.20;;;13.60;99.90;;;;;;5095446;28;20115;-59
2021/08/27 08:20:21;;;;;;;12.40;6.22;;;13.70;99.90;;;;;;5095502;28;20099;-60
2021/08/27 08:22:47;;;;;;;10.20;6.35;;;13.70;99.90;;;;;;5095827;28;20082;-61
2021/08/27 08:25:13;;;;;;;11.48;6.13;;;13.70;99.90;;;;;;5095127;28;20028;-56
2021/08/27 08:27:38;;;;;;;7.22;5.47;;;13.60;99.90;;;;;;5095100;28;20423;-59
2021/08/27 08:30:05;;;;;;;10.43;5.28;;;13.70;99.90;;;;;;5094854;28;20128;-57
2021/08/27 08:32:30;;;;;;;6.60;4.43;;;13.80;99.90;;;;;;5111098;28;20036;-54
2021/08/27 08:34:56;;;;;;;7.35;4.70;;;13.70;99.90;;;;;;5094873;28;20502;-58
2021/08/27 08:37:22;;;;;;;6.50;4.32;;;13.70;99.90;;;;;;5076969;28;20036;-61
2021/08/27 08:39:48;;;;;;;4.78;3.60;;;13.60;99.90;;;;;;5095184;28;20036;-64
2021/08/27 08:42:14;;;;;;;4.85;3.78;;;13.70;99.90;;;;;;5094565;28;20089;-61
2021/08/27 08:44:41;;;;;;;6.15;3.78;;;13.60;99.90;;;;;;5092280;28;20089;-63
2021/08/27 08:47:08;;;;;;;4.57;3.58;;;13.70;99.90;;;;;;5094100;28;20040;-60
2021/08/27 08:49:35;;;;;;;6.13;4.57;;;13.60;99.90;;;;;;5094705;28;20711;-62
2021/08/27 08:52:02;;;;;;;6.00;4.10;;;13.60;99.90;;;;;;5094789;28;20384;-64
2021/08/27 08:54:29;;;;;;;6.78;3.90;;;13.50;99.90;;;;;;5094806;28;20028;-63
2021/08/27 08:56:56;;;;;;;5.50;4.10;;;13.40;99.90;;;;;;5076762;28;20052;-61
2021/08/27 08:59:23;;;;;;;6.53;4.07;;;13.60;99.90;;;;;;5095276;28;20460;-61
2021/08/27 09:01:48;;;;;;;7.38;4.15;;;13.70;99.90;;;;;;5095444;28;20064;-58
2021/08/27 09:04:14;;;;;;;4.60;3.90;;;13.60;99.90;;;;;;5094823;28;20071;-59
2021/08/27 09:06:40;;;;;;;5.57;3.70;;;13.60;99.90;;;;;;5076792;28;20449;-61
2021/08/27 09:09:06;;;;;;;8.55;4.30;;;13.60;99.90;;;;;;5095206;28;20024;-60
2021/08/27 09:11:32;;;;;;;6.95;3.88;;;13.60;99.90;;;;;;5094744;28;20119;-55
2021/08/27 09:14:03;;;;;;;5.47;4.25;;;13.70;99.90;;;;;;5095066;28;20035;-55
2021/08/27 09:16:32;;;;;;;8.50;4.53;;;13.60;99.90;;;;;;5076613;28;20031;-59
2021/08/27 09:18:58;;;;;;;6.30;4.55;;;13.50;99.90;;;;;;5095539;28;20031;-54
2021/08/27 09:21:47;;;;;;;7.55;4.30;;;13.50;99.90;;;;;;5077045;28;20055;-57
2021/08/27 09:24:16;;;;;;;5.72;4.72;;;13.50;99.90;;;;;;5095511;28;20039;-61
2021/08/27 09:26:44;;;;;;;5.28;4.78;;;13.40;99.90;;;;;;5059897;28;20043;-58
2021/08/27 09:29:10;;;;;;;7.53;4.32;;;13.50;99.90;;;;;;5093600;28;20028;-61
2021/08/27 09:31:39;;;;;;;6.35;4.65;;;13.50;99.90;;;;;;5095177;28;20059;-60
2021/08/27 09:34:05;;;;;;;6.22;4.75;;;13.50;99.90;;;;;;5094508;28;20042;-58
2021/08/27 09:36:32;;;;;;;5.85;4.40;;;13.60;99.90;;;;;;5094193;28;20497;-58
2021/08/27 09:39:12;;;;;;;6.53;5.15;;;13.70;99.90;;;;;;5074961;28;20115;-60
2021/08/27 09:41:38;;;;;;;5.22;4.38;;;13.60;99.90;;;;;;5078108;28;20033;-58
2021/08/27 09:44:04;;;;;;;4.63;4.20;;;13.60;99.90;;;;;;5057804;28;20029;-62
2021/08/27 09:46:34;;;;;;;6.60;4.47;;;13.60;99.90;;;;;;5074631;28;20123;-57
2021/08/27 09:49:01;;;;;;;4.97;4.40;;;13.60;99.90;;;;;;5075424;28;20043;-54
2021/08/27 09:51:44;;;;;;;4.38;3.80;;;13.60;99.90;;;;;;5075646;28;20033;-57
2021/08/27 09:54:19;;;;;;;5.78;3.90;;;13.60;99.90;;;;;;5075633;28;20088;-55
2021/08/27 09:56:51;;;;;;;7.65;4.25;;;13.70;99.90;;;;;;5076830;28;20414;-55
2021/08/27 09:59:17;;;;;;;6.85;4.35;;;13.50;99.90;;;;;;5077360;28;20038;-49
2021/08/27 10:01:49;;;;;;;6.88;4.30;;;13.50;99.90;;;;;;5074787;28;20040;-51
2021/08/27 10:04:16;;;;;;;5.32;4.50;;;13.60;99.90;;;;;;5073898;28;20036;-54
2021/08/27 10:06:42;;;;;;;6.95;4.45;;;13.70;99.90;;;;;;5073929;28;20041;-55
2021/08/27 10:09:08;;;;;;;6.13;4.15;;;13.70;99.90;;;;;;5075158;28;20029;-55
2021/08/27 10:11:35;;;;;;;6.93;4.60;;;13.80;99.90;;;;;;5074261;28;20510;-52
2021/08/27 10:14:02;;;;;;;6.63;3.83;;;13.80;99.90;;;;;;5073613;28;20480;-55
2021/08/27 10:16:30;;;;;;;3.90;3.40;;;13.90;99.90;;;;;;5073371;28;20432;-55
2021/08/27 10:18:56;;;;;;;4.57;3.75;;;13.80;99.90;;;;;;5073432;28;20024;-51
2021/08/27 10:21:21;;;;;;;3.90;3.20;;;13.90;99.90;;;;;;5094505;28;20438;-53
2021/08/27 10:23:47;;;;;;;3.47;3.17;;;13.90;99.90;;;;;;5094468;28;20401;-54
2021/08/27 10:26:17;;;;;;;3.55;3.25;;;14.10;99.90;;;;;;5076396;28;20495;-53
2021/08/27 10:28:44;;;;;;;4.45;3.25;;;14.10;99.90;;;;;;5093357;28;20114;-54
2021/08/27 10:31:10;;;;;;;4.25;3.30;;;14.00;99.90;;;;;;5093809;28;20028;-53
2021/08/27 10:33:39;;;;;;;3.75;3.45;;;13.90;99.90;;;;;;5094118;28;20658;-52
2021/08/27 10:36:21;;;;;;;3.60;3.30;;;14.00;99.90;;;;;;5094280;28;20127;-52
2021/08/27 10:38:52;;;;;;;4.10;3.70;;;14.00;99.90;;;;;;5092695;28;20031;-52
2021/08/27 10:41:28;;;;;;;3.70;3.40;;;14.00;99.90;;;;;;5093851;28;20077;-53
2021/08/27 10:43:59;;;;;;;4.20;3.80;;;14.10;99.90;;;;;;5094217;28;20024;-53
2021/08/27 10:46:43;;;;;;;4.25;3.58;;;14.20;99.90;;;;;;5093876;28;20040;-52
2021/08/27 10:49:10;;;;;;;3.67;3.37;;;14.30;99.90;;;;;;5093898;28;20032;-53
2021/08/27 10:51:41;;;;;;;5.35;3.88;;;14.30;99.90;;;;;;5094096;28;20254;-57
2021/08/27 10:54:09;;;;;;;4.15;3.75;;;14.40;99.90;;;;;;5093666;28;20034;-53
2021/08/27 10:56:51;;;;;;;5.78;4.38;;;14.50;99.90;;;;;;5094545;28;20044;-53
2021/08/27 10:59:38;;;;;;;5.88;4.22;;;14.40;99.90;;;;;;5095114;28;20516;-58
2021/08/27 11:02:05;;;;;;;4.38;3.95;;;14.40;99.90;;;;;;5095416;28;20024;-57
2021/08/27 11:04:44;;;;;;;4.88;4.20;;;14.50;99.90;;;;;;5094445;28;20071;-61
2021/08/27 11:07:30;;;;;;;4.20;3.80;;;14.60;99.90;;;;;;5093659;28;20044;-56
2021/08/27 11:10:00;;;;;;;5.13;4.63;;;14.50;99.90;;;;;;5091669;28;20505;-58
2021/08/27 11:12:33;;;;;;;4.40;4.00;;;14.60;99.90;;;;;;5092848;28;20118;-57
2021/08/27 11:15:29;;;;;;;5.40;4.32;;;14.70;99.90;;;;;;5092969;28;20665;-57
2021/08/27 11:18:15;;;;;;;4.60;4.20;;;15.00;99.90;;;;;;5094014;28;20031;-57
2021/08/27 11:24:15;;;;;;;4.40;3.97;;;15.10;99.90;;;;;;5049260;28;20118;-56
2021/08/27 11:26:45;;;;;;;4.38;3.92;;;15.10;99.90;;;;;;5075529;28;20024;-56
2021/08/27 11:29:41;;;;;;;4.70;4.00;;;15.00;99.90;;;;;;5092538;28;20027;-59
2021/08/27 11:32:16;;;;;;;4.90;4.40;;;15.00;99.90;;;;;;5080111;28;20040;-58
2021/08/27 11:34:55;;;;;;;4.10;3.70;;;15.20;99.90;;;;;;5092822;28;20035;-56
2021/08/27 11:37:29;;;;;;;4.00;3.70;;;15.60;99.90;;;;;;5092955;28;20522;-51
2021/08/27 11:39:55;;;;;;;5.07;3.80;;;15.80;99.90;;;;;;5093116;28;20036;-53
2021/08/27 11:42:21;;;;;;;3.90;3.47;;;15.80;99.90;;;;;;5093369;28;20122;-56
2021/08/27 11:45:08;;;;;;;3.63;2.85;;;15.90;99.90;;;;;;5093116;28;20047;-58
2021/08/27 11:48:07;;;;;;;3.67;3.17;;;15.80;99.60;;;;;;5092947;28;20111;-55
2021/08/27 11:50:39;;;;;;;3.22;2.80;;;15.90;99.00;;;;;;5093142;28;20044;-58
2021/08/27 11:53:07;;;;;;;3.00;2.70;;;15.80;98.60;;;;;;5093083;28;20028;-58
2021/08/27 11:55:43;;;;;;;3.38;2.90;;;15.80;99.20;;;;;;5092785;28;20446;-55
2021/08/27 11:58:14;;;;;;;2.97;2.72;;;16.30;98.50;;;;;;5092777;28;20016;-54
2021/08/27 12:00:42;;;;;;;3.33;2.97;;;16.60;97.70;;;;;;5093022;28;20121;-57
2021/08/27 12:03:11;;;;;;;3.10;2.88;;;16.60;97.80;;;;;;5092971;28;20035;-59
2021/08/27 12:05:37;;;;;;;3.35;3.05;;;16.50;98.20;;;;;;5092949;28;20467;-57
2021/08/27 12:08:05;;;;;;;2.85;2.65;;;16.70;97.90;;;;;;5092732;28;20063;-61
2021/08/27 12:10:33;;;;;;;3.88;2.90;;;16.40;98.30;;;;;;5093257;28;20036;-57
2021/08/27 12:13:02;;;;;;;4.80;3.20;;;16.50;98.40;;;;;;5092359;28;20483;-58
2021/08/27 12:15:30;;;;;;;3.25;2.95;;;16.30;98.70;;;;;;5092395;28;20032;-56
2021/08/27 12:18:09;;;;;;;2.90;2.60;;;16.10;99.40;;;;;;5096464;28;20492;-58
2021/08/27 12:20:40;;;;;;;2.75;2.47;;;16.20;98.40;;;;;;5115843;28;20027;-57
2021/08/27 12:23:13;;;;;;;2.45;2.25;;;16.20;97.90;;;;;;5116176;28;20039;-59
2021/08/27 12:25:42;;;;;;;3.03;2.72;;;16.40;98.20;;;;;;5096463;28;20471;-58
2021/08/27 12:28:11;;;;;;;2.92;2.63;;;16.60;98.00;;;;;;5116427;28;20035;-56
2021/08/27 12:30:47;;;;;;;2.85;2.40;;;16.70;97.90;;;;;;5115815;28;20093;-57
2021/08/27 12:33:13;;;;;;;2.75;2.38;;;16.70;98.00;;;;;;5115815;28;20036;-59
2021/08/27 12:35:39;;;;;;;5.03;3.00;;;16.80;98.30;;;;;;5116316;28;20067;-59
2021/08/27 12:38:06;;;;;;;2.70;2.50;;;16.80;97.50;;;;;;5116232;28;20087;-54
2021/08/27 12:40:33;;;;;;;2.85;2.50;;;16.80;97.80;;;;;;5098710;28;20036;-57
2021/08/27 12:43:07;;;;;;;3.10;2.20;;;16.90;97.60;;;;;;5117111;28;20032;-57
2021/08/27 12:46:05;;;;;;;3.70;2.30;;;17.30;96.60;;;;;;5116587;28;20031;-56
2021/08/27 12:48:33;;;;;;;3.35;2.20;;;17.40;96.30;;;;;;5060329;28;20039;-58
2021/08/27 12:51:00;;;;;;;2.42;2.22;;;17.20;96.10;;;;;;5116890;28;20047;-57
2021/08/27 12:53:30;;;;;;;2.58;2.25;;;17.10;96.50;;;;;;5116897;28;20174;-54
2021/08/27 12:56:12;;;;;;;2.20;2.00;;;17.30;96.40;;;;;;5116494;28;20053;-57
2021/08/27 12:58:39;;;;;;;2.95;2.20;;;17.60;95.80;;;;;;5116743;28;20027;-58